createdAt,value
2018-06-24T00:36:25.615Z,10.80
2018-06-24T01:13:20.443Z,10.87
2018-06-24T01:15:48.799Z,12.10
2018-06-24T01:18:17.146Z,11.13
2018-06-24T01:20:45.527Z,11.45
2018-06-24T01:23:13.842Z,12.07
2018-06-24T01:25:42.185Z,12.10
2018-06-24T01:28:10.507Z,13.10
2018-06-24T01:30:38.842Z,11.07
2018-06-24T01:33:07.174Z,11.83
2018-06-24T01:35:35.362Z,12.43
2018-06-24T01:38:03.863Z,10.90
2018-06-24T01:40:32.198Z,10.83
2018-06-24T01:43:00.531Z,10.93
2018-06-24T01:45:28.882Z,11.50
2018-06-24T01:47:57.203Z,10.23
2018-06-24T01:50:25.526Z,10.27
2018-06-24T01:52:53.648Z,10.50
2018-06-24T01:55:22.095Z,10.60
2018-06-24T01:57:50.416Z,10.43
2018-06-24T02:00:18.766Z,11.00
2018-06-24T02:02:47.103Z,10.70
2018-06-24T02:05:15.454Z,12.10
2018-06-24T02:07:43.854Z,11.20
2018-06-24T02:10:12.197Z,10.63
2018-06-24T02:12:46.990Z,10.70
2018-06-24T02:15:15.375Z,11.17
2018-06-24T02:17:43.730Z,10.58
2018-06-24T02:20:12.078Z,11.07
2018-06-24T02:22:40.411Z,11.57
2018-06-24T02:25:08.786Z,11.50
2018-06-24T02:27:37.184Z,11.18
2018-06-24T02:30:05.562Z,11.22
2018-06-24T02:32:33.903Z,10.65
2018-06-24T02:35:01.999Z,11.50
2018-06-24T02:37:30.423Z,12.88
2018-06-24T02:39:58.824Z,12.03
2018-06-24T02:42:27.171Z,11.30
2018-06-24T02:44:55.494Z,13.22
2018-06-24T02:47:23.826Z,11.50
2018-06-24T02:49:52.130Z,12.77
2018-06-24T02:52:20.584Z,12.93
2018-06-24T02:54:48.949Z,13.00
2018-06-24T02:57:17.250Z,14.80
2018-06-24T02:59:45.589Z,15.43
2018-06-24T03:02:13.945Z,14.60
2018-06-24T03:04:41.994Z,16.62
2018-06-24T03:07:10.330Z,14.67
2018-06-24T03:09:38.721Z,13.43
2018-06-24T03:12:07.152Z,14.30
2018-06-24T03:14:35.467Z,14.47
2018-06-24T03:17:03.884Z,13.57
2018-06-24T03:19:32.245Z,13.65
2018-06-24T03:22:00.594Z,14.20
2018-06-24T03:24:28.966Z,14.05
2018-06-24T03:26:57.298Z,14.15
2018-06-24T03:29:25.696Z,13.28
2018-06-24T03:31:54.084Z,12.70
2018-06-24T03:34:22.190Z,13.45
2018-06-24T03:36:50.531Z,12.58
2018-06-24T03:39:18.869Z,13.93
2018-06-24T03:41:47.258Z,13.20
2018-06-24T03:44:15.625Z,13.10
2018-06-24T03:46:44.063Z,13.90
2018-06-24T03:49:12.452Z,12.73
2018-06-24T03:51:40.803Z,13.45
2018-06-24T03:54:09.287Z,11.03
2018-06-24T03:56:37.626Z,11.70
2018-06-24T03:59:05.973Z,13.43
2018-06-24T04:01:34.491Z,10.67
2018-06-24T04:04:02.863Z,11.97
2018-06-24T04:06:31.263Z,11.70
2018-06-24T04:08:59.611Z,11.88
2018-06-24T04:11:27.938Z,12.18
2018-06-24T04:13:56.352Z,11.40
2018-06-24T04:16:24.735Z,12.93
2018-06-24T04:18:53.084Z,12.23
2018-06-24T04:21:21.394Z,11.40
2018-06-24T04:23:49.759Z,12.43
2018-06-24T04:26:18.218Z,11.60
2018-06-24T04:28:46.541Z,11.87
2018-06-24T04:31:14.882Z,12.03
2018-06-24T04:33:43.186Z,11.67
2018-06-24T04:36:11.594Z,12.20
2018-06-24T04:38:39.973Z,11.43
2018-06-24T04:41:08.321Z,11.20
2018-06-24T04:43:36.637Z,10.93
2018-06-24T04:46:04.979Z,11.97
2018-06-24T04:48:33.403Z,10.60
2018-06-24T04:51:01.699Z,11.17
2018-06-24T04:53:30.100Z,10.43
2018-06-24T04:55:58.154Z,12.60
2018-06-24T04:58:26.462Z,10.90
2018-06-24T05:00:54.815Z,11.37
2018-06-24T05:03:22.845Z,11.27
2018-06-24T05:05:51.290Z,10.73
2018-06-24T05:08:19.652Z,11.03
2018-06-24T05:10:48.021Z,10.93
2018-06-24T05:13:16.361Z,9.30
2018-06-24T05:15:44.686Z,10.97
2018-06-24T05:18:12.746Z,11.00
2018-06-24T05:20:40.850Z,9.90
2018-06-24T05:23:09.191Z,10.50
2018-06-24T05:25:37.566Z,9.40
2018-06-24T05:28:05.970Z,9.10
2018-06-24T06:07:29.251Z,9.20
2018-06-24T06:12:25.204Z,8.80
2018-06-24T06:24:44.346Z,9.80
2018-06-24T06:34:35.338Z,12.30
2018-06-24T06:37:03.717Z,11.10
2018-06-24T06:39:32.019Z,9.80
2018-06-24T06:42:00.366Z,10.80
2018-06-24T06:44:28.770Z,10.30
2018-06-24T06:46:57.214Z,11.00
2018-06-24T06:49:25.559Z,9.55
2018-06-24T06:51:53.892Z,10.70
2018-06-24T06:54:22.317Z,9.57
2018-06-24T06:56:50.718Z,9.40
2018-06-24T06:59:19.067Z,10.50
2018-06-24T07:01:47.384Z,11.40
2018-06-24T07:04:15.706Z,11.00
2018-06-24T07:06:44.040Z,10.33
2018-06-24T07:09:12.414Z,9.30
2018-06-24T07:11:41.065Z,10.80
2018-06-24T07:14:09.135Z,10.30
2018-06-24T07:16:37.528Z,12.40
2018-06-24T07:19:05.894Z,11.50
2018-06-24T07:21:34.236Z,12.90
2018-06-24T07:24:02.632Z,11.23
2018-06-24T07:26:30.974Z,11.47
2018-06-24T07:28:59.518Z,11.70
2018-06-24T07:31:27.946Z,11.00
2018-06-24T07:33:56.323Z,11.50
2018-06-24T07:36:24.625Z,11.60
2018-06-24T07:38:52.925Z,11.80
2018-06-24T07:41:21.379Z,10.60
2018-06-24T07:43:50.101Z,10.90
2018-06-24T07:46:18.459Z,11.03
2018-06-24T07:48:46.760Z,11.27
2018-06-24T07:51:15.179Z,10.10
2018-06-24T07:53:43.947Z,9.87
2018-06-24T07:56:11.998Z,9.50
2018-06-24T07:58:40.389Z,11.80
2018-06-24T08:01:08.778Z,9.30
2018-06-24T08:03:37.356Z,10.10
2018-06-24T08:06:06.206Z,10.30
2018-06-24T08:08:34.651Z,9.20
2018-06-24T08:11:03.095Z,9.90
2018-06-24T08:13:33.343Z,9.80
2018-06-24T08:18:29.671Z,11.30
2018-06-24T08:20:58.078Z,11.87
2018-06-24T08:23:26.498Z,10.50
2018-06-24T08:25:54.918Z,10.20
2018-06-24T08:28:23.815Z,9.23
2018-06-24T08:30:51.903Z,10.07
2018-06-24T08:33:20.235Z,10.07
2018-06-24T08:35:48.643Z,9.70
2018-06-24T08:38:17.676Z,9.67
2018-06-24T08:40:46.035Z,8.50
2018-06-24T08:43:14.350Z,7.70
2018-06-24T08:45:44.769Z,8.13
2018-06-24T08:48:13.207Z,6.93
2018-06-24T08:50:41.382Z,7.10
2018-06-24T08:53:09.793Z,7.30
2018-06-24T08:55:38.151Z,7.00
2018-06-24T08:58:06.509Z,7.00
2018-06-24T09:00:34.935Z,7.13
2018-06-24T09:03:03.276Z,7.73
2018-06-24T09:07:59.046Z,9.20
2018-06-24T09:10:27.365Z,7.60
2018-06-24T09:12:55.878Z,7.35
2018-06-24T09:15:24.246Z,6.67
2018-06-24T09:17:52.370Z,6.90
2018-06-24T09:20:20.740Z,6.00
2018-06-24T09:22:49.165Z,5.90
2018-06-24T09:52:22.222Z,6.25
2018-06-24T09:54:50.562Z,7.00
2018-06-24T09:57:18.908Z,6.33
2018-06-24T09:59:47.055Z,6.73
2018-06-24T10:02:15.423Z,7.63
2018-06-24T10:04:43.730Z,6.67
2018-06-24T10:07:11.782Z,6.30
2018-06-24T10:09:40.164Z,5.60
2018-06-24T10:34:19.174Z,5.50
2018-06-24T10:39:18.755Z,4.90
2018-06-24T10:41:47.545Z,5.20
2018-06-24T10:44:16.083Z,5.20
2018-06-24T11:11:23.513Z,5.10
2018-06-24T11:41:04.570Z,4.67
2018-06-24T15:04:07.594Z,2.80
2018-06-24T15:06:36.068Z,3.35
2018-06-24T17:14:58.963Z,3.40
2018-06-24T17:27:20.591Z,3.10
2018-06-24T17:42:10.511Z,2.60
2018-06-24T17:44:39.039Z,2.95
2018-06-24T17:47:08.085Z,2.80
2018-06-24T17:49:36.604Z,2.75
2018-06-24T17:54:32.644Z,3.20
2018-06-24T17:59:28.584Z,3.75
2018-06-24T18:01:57.008Z,3.10
2018-06-24T21:31:11.327Z,2.47
2018-06-24T21:33:39.643Z,2.93
2018-06-24T21:36:07.981Z,3.00
2018-06-24T21:38:36.293Z,3.00
2018-06-24T21:41:04.390Z,2.37
2018-06-24T21:43:33.498Z,3.10
2018-06-24T21:46:02.176Z,3.17
2018-06-24T21:48:30.556Z,2.53
2018-06-24T21:50:58.982Z,3.40
2018-06-24T21:53:27.354Z,3.33
2018-06-24T21:55:55.802Z,3.60
2018-06-24T21:58:24.182Z,3.20
2018-06-24T22:00:52.626Z,2.90
2018-06-24T22:03:20.975Z,3.70
2018-06-24T22:05:49.304Z,3.17
2018-06-24T22:08:17.627Z,3.20
2018-06-24T22:10:45.947Z,3.55
2018-06-24T22:13:14.319Z,2.83
2018-06-24T22:15:42.869Z,3.47
2018-06-24T22:18:11.180Z,3.35
2018-06-24T22:23:07.237Z,3.65
2018-06-24T22:25:35.562Z,3.80
2018-06-24T23:54:12.758Z,7.03
2018-06-24T23:56:41.102Z,6.50
2018-06-24T23:59:09.433Z,6.40
